sensor_id;sensor_type;location;lat;lon;timestamp;temperature;humidity
17080;DHT22;8655;57.106;-2.088;2023-05-20T00:01:07;19.70;53.20
17080;DHT22;8655;57.106;-2.088;2023-05-20T00:03:32;19.70;53.20
17080;DHT22;8655;57.106;-2.088;2023-05-20T00:05:58;19.70;53.20
17080;DHT22;8655;57.106;-2.088;2023-05-20T00:08:23;19.70;53.20
17080;DHT22;8655;57.106;-2.088;2023-05-20T00:10:49;19.70;53.20
17080;DHT22;8655;57.106;-2.088;2023-05-20T00:13:15;19.70;53.20
17080;DHT22;8655;57.106;-2.088;2023-05-20T00:15:41;19.70;53.20
17080;DHT22;8655;57.106;-2.088;2023-05-20T00:18:07;19.60;53.20
17080;DHT22;8655;57.106;-2.088;2023-05-20T00:20:32;19.60;53.10
17080;DHT22;8655;57.106;-2.088;2023-05-20T00:22:58;19.60;53.10
17080;DHT22;8655;57.106;-2.088;2023-05-20T00:25:24;19.60;53.10
17080;DHT22;8655;57.106;-2.088;2023-05-20T00:27:50;19.60;53.10
17080;DHT22;8655;57.106;-2.088;2023-05-20T00:30:16;19.60;53.10
17080;DHT22;8655;57.106;-2.088;2023-05-20T00:32:41;19.60;53.10
17080;DHT22;8655;57.106;-2.088;2023-05-20T00:35:07;19.60;53.10
17080;DHT22;8655;57.106;-2.088;2023-05-20T00:37:33;19.60;53.10
17080;DHT22;8655;57.106;-2.088;2023-05-20T00:39:59;19.60;53.10
17080;DHT22;8655;57.106;-2.088;2023-05-20T00:42:26;19.60;53.10
17080;DHT22;8655;57.106;-2.088;2023-05-20T00:44:52;19.60;53.10
17080;DHT22;8655;57.106;-2.088;2023-05-20T00:47:20;19.60;53.10
17080;DHT22;8655;57.106;-2.088;2023-05-20T00:49:49;19.60;53.20
17080;DHT22;8655;57.106;-2.088;2023-05-20T00:52:17;19.60;53.20
17080;DHT22;8655;57.106;-2.088;2023-05-20T00:54:44;19.60;53.20
17080;DHT22;8655;57.106;-2.088;2023-05-20T00:57:10;19.60;53.20
17080;DHT22;8655;57.106;-2.088;2023-05-20T00:59:37;19.60;53.20
17080;DHT22;8655;57.106;-2.088;2023-05-20T01:02:06;19.60;53.20
17080;DHT22;8655;57.106;-2.088;2023-05-20T01:04:32;19.60;53.20
17080;DHT22;8655;57.106;-2.088;2023-05-20T01:07:02;19.60;53.20
17080;DHT22;8655;57.106;-2.088;2023-05-20T01:09:30;19.60;53.20
17080;DHT22;8655;57.106;-2.088;2023-05-20T01:14:52;19.50;53.10
17080;DHT22;8655;57.106;-2.088;2023-05-20T01:17:22;19.60;53.20
17080;DHT22;8655;57.106;-2.088;2023-05-20T01:19:53;19.50;53.10
17080;DHT22;8655;57.106;-2.088;2023-05-20T01:22:26;19.50;53.10
17080;DHT22;8655;57.106;-2.088;2023-05-20T01:24:52;19.60;53.20
17080;DHT22;8655;57.106;-2.088;2023-05-20T01:27:19;19.50;53.10
17080;DHT22;8655;57.106;-2.088;2023-05-20T01:29:47;19.50;53.10
17080;DHT22;8655;57.106;-2.088;2023-05-20T01:32:22;19.50;53.10
17080;DHT22;8655;57.106;-2.088;2023-05-20T01:34:50;19.50;53.10
17080;DHT22;8655;57.106;-2.088;2023-05-20T01:37:18;19.50;53.10
17080;DHT22;8655;57.106;-2.088;2023-05-20T01:39:45;19.50;53.10
17080;DHT22;8655;57.106;-2.088;2023-05-20T01:42:12;19.50;53.10
17080;DHT22;8655;57.106;-2.088;2023-05-20T01:44:40;19.50;53.10
17080;DHT22;8655;57.106;-2.088;2023-05-20T01:47:06;19.50;53.10
17080;DHT22;8655;57.106;-2.088;2023-05-20T01:49:31;19.50;53.10
17080;DHT22;8655;57.106;-2.088;2023-05-20T01:51:57;19.50;53.10
17080;DHT22;8655;57.106;-2.088;2023-05-20T01:54:23;19.50;53.10
17080;DHT22;8655;57.106;-2.088;2023-05-20T01:56:49;19.50;53.10
17080;DHT22;8655;57.106;-2.088;2023-05-20T01:59:15;19.50;53.10
17080;DHT22;8655;57.106;-2.088;2023-05-20T02:01:41;19.50;53.10
17080;DHT22;8655;57.106;-2.088;2023-05-20T02:04:07;19.50;53.10
17080;DHT22;8655;57.106;-2.088;2023-05-20T02:06:32;19.50;53.10
17080;DHT22;8655;57.106;-2.088;2023-05-20T02:08:58;19.50;53.10
17080;DHT22;8655;57.106;-2.088;2023-05-20T02:11:24;19.50;53.10
17080;DHT22;8655;57.106;-2.088;2023-05-20T02:13:50;19.50;53.10
17080;DHT22;8655;57.106;-2.088;2023-05-20T02:16:16;19.50;53.10
17080;DHT22;8655;57.106;-2.088;2023-05-20T02:18:42;19.50;53.10
17080;DHT22;8655;57.106;-2.088;2023-05-20T02:21:08;19.50;53.10
17080;DHT22;8655;57.106;-2.088;2023-05-20T02:23:34;19.50;53.10
17080;DHT22;8655;57.106;-2.088;2023-05-20T02:26:00;19.50;53.10
17080;DHT22;8655;57.106;-2.088;2023-05-20T02:28:26;19.40;53.00
17080;DHT22;8655;57.106;-2.088;2023-05-20T02:30:52;19.40;53.00
17080;DHT22;8655;57.106;-2.088;2023-05-20T02:33:18;19.40;53.00
17080;DHT22;8655;57.106;-2.088;2023-05-20T02:35:44;19.50;53.10
17080;DHT22;8655;57.106;-2.088;2023-05-20T02:38:11;19.40;53.00
17080;DHT22;8655;57.106;-2.088;2023-05-20T02:40:36;19.40;53.00
17080;DHT22;8655;57.106;-2.088;2023-05-20T02:43:02;19.50;53.10
17080;DHT22;8655;57.106;-2.088;2023-05-20T02:45:28;19.40;53.00
17080;DHT22;8655;57.106;-2.088;2023-05-20T02:47:54;19.40;53.00
17080;DHT22;8655;57.106;-2.088;2023-05-20T02:50:20;19.40;53.00
17080;DHT22;8655;57.106;-2.088;2023-05-20T02:52:45;19.40;53.00
17080;DHT22;8655;57.106;-2.088;2023-05-20T02:55:11;19.40;53.10
17080;DHT22;8655;57.106;-2.088;2023-05-20T02:57:37;19.40;53.00
17080;DHT22;8655;57.106;-2.088;2023-05-20T03:00:07;19.40;53.00
17080;DHT22;8655;57.106;-2.088;2023-05-20T03:02:36;19.40;53.00
17080;DHT22;8655;57.106;-2.088;2023-05-20T03:05:02;19.40;53.00
17080;DHT22;8655;57.106;-2.088;2023-05-20T03:07:30;19.40;53.00
17080;DHT22;8655;57.106;-2.088;2023-05-20T03:09:56;19.40;53.10
17080;DHT22;8655;57.106;-2.088;2023-05-20T03:12:24;19.40;53.00
17080;DHT22;8655;57.106;-2.088;2023-05-20T03:14:51;19.40;53.00
17080;DHT22;8655;57.106;-2.088;2023-05-20T03:17:20;19.40;53.00
17080;DHT22;8655;57.106;-2.088;2023-05-20T03:19:46;19.40;53.00
17080;DHT22;8655;57.106;-2.088;2023-05-20T03:22:11;19.40;53.10
17080;DHT22;8655;57.106;-2.088;2023-05-20T03:24:37;19.40;53.10
17080;DHT22;8655;57.106;-2.088;2023-05-20T03:27:03;19.40;53.10
17080;DHT22;8655;57.106;-2.088;2023-05-20T03:29:29;19.40;53.10
17080;DHT22;8655;57.106;-2.088;2023-05-20T03:31:55;19.40;53.10
17080;DHT22;8655;57.106;-2.088;2023-05-20T03:34:21;19.40;53.10
17080;DHT22;8655;57.106;-2.088;2023-05-20T03:36:47;19.40;53.10
17080;DHT22;8655;57.106;-2.088;2023-05-20T03:39:12;19.30;53.00
17080;DHT22;8655;57.106;-2.088;2023-05-20T03:41:38;19.40;53.10
17080;DHT22;8655;57.106;-2.088;2023-05-20T03:44:04;19.30;53.00
17080;DHT22;8655;57.106;-2.088;2023-05-20T03:46:29;19.40;53.10
17080;DHT22;8655;57.106;-2.088;2023-05-20T03:48:56;19.30;53.00
17080;DHT22;8655;57.106;-2.088;2023-05-20T03:51:22;19.30;53.00
17080;DHT22;8655;57.106;-2.088;2023-05-20T03:53:48;19.30;53.00
17080;DHT22;8655;57.106;-2.088;2023-05-20T03:56:13;19.30;53.00
17080;DHT22;8655;57.106;-2.088;2023-05-20T03:58:39;19.30;53.00
17080;DHT22;8655;57.106;-2.088;2023-05-20T04:01:05;19.30;53.00
17080;DHT22;8655;57.106;-2.088;2023-05-20T04:03:31;19.30;53.00
17080;DHT22;8655;57.106;-2.088;2023-05-20T04:05:56;19.30;53.00
17080;DHT22;8655;57.106;-2.088;2023-05-20T04:08:22;19.30;53.10
17080;DHT22;8655;57.106;-2.088;2023-05-20T04:10:53;19.30;53.00
17080;DHT22;8655;57.106;-2.088;2023-05-20T04:13:19;19.30;53.10
17080;DHT22;8655;57.106;-2.088;2023-05-20T04:15:46;19.30;53.00
17080;DHT22;8655;57.106;-2.088;2023-05-20T04:18:12;19.30;53.10
17080;DHT22;8655;57.106;-2.088;2023-05-20T04:20:38;19.30;53.10
17080;DHT22;8655;57.106;-2.088;2023-05-20T04:23:06;19.30;53.10
17080;DHT22;8655;57.106;-2.088;2023-05-20T04:25:31;19.30;53.10
17080;DHT22;8655;57.106;-2.088;2023-05-20T04:27:58;19.30;53.10
17080;DHT22;8655;57.106;-2.088;2023-05-20T04:30:24;19.30;53.10
17080;DHT22;8655;57.106;-2.088;2023-05-20T04:32:50;19.30;53.10
17080;DHT22;8655;57.106;-2.088;2023-05-20T04:35:16;19.30;53.10
17080;DHT22;8655;57.106;-2.088;2023-05-20T04:37:42;19.30;53.10
17080;DHT22;8655;57.106;-2.088;2023-05-20T04:40:13;19.20;53.60
17080;DHT22;8655;57.106;-2.088;2023-05-20T04:42:38;19.30;53.10
17080;DHT22;8655;57.106;-2.088;2023-05-20T04:45:05;19.20;53.00
17080;DHT22;8655;57.106;-2.088;2023-05-20T04:47:33;19.20;53.00
17080;DHT22;8655;57.106;-2.088;2023-05-20T04:50:06;19.20;53.00
17080;DHT22;8655;57.106;-2.088;2023-05-20T04:52:33;19.30;53.10
17080;DHT22;8655;57.106;-2.088;2023-05-20T04:54:58;19.20;53.10
17080;DHT22;8655;57.106;-2.088;2023-05-20T04:57:26;19.20;53.10
17080;DHT22;8655;57.106;-2.088;2023-05-20T04:59:52;19.20;53.10
17080;DHT22;8655;57.106;-2.088;2023-05-20T05:02:17;19.20;53.10
17080;DHT22;8655;57.106;-2.088;2023-05-20T05:04:43;19.20;53.10
17080;DHT22;8655;57.106;-2.088;2023-05-20T05:07:08;19.20;53.10
17080;DHT22;8655;57.106;-2.088;2023-05-20T05:09:35;19.20;53.10
17080;DHT22;8655;57.106;-2.088;2023-05-20T05:12:01;19.20;53.10
17080;DHT22;8655;57.106;-2.088;2023-05-20T05:14:27;19.20;53.10
17080;DHT22;8655;57.106;-2.088;2023-05-20T05:16:52;19.20;53.10
17080;DHT22;8655;57.106;-2.088;2023-05-20T05:19:18;19.20;53.10
17080;DHT22;8655;57.106;-2.088;2023-05-20T05:21:43;19.20;53.10
17080;DHT22;8655;57.106;-2.088;2023-05-20T05:24:09;19.20;53.10
17080;DHT22;8655;57.106;-2.088;2023-05-20T05:26:35;19.20;53.10
17080;DHT22;8655;57.106;-2.088;2023-05-20T05:29:01;19.20;53.10
17080;DHT22;8655;57.106;-2.088;2023-05-20T05:31:26;19.20;53.10
17080;DHT22;8655;57.106;-2.088;2023-05-20T05:33:52;19.20;53.10
17080;DHT22;8655;57.106;-2.088;2023-05-20T05:36:18;19.20;53.10
17080;DHT22;8655;57.106;-2.088;2023-05-20T05:38:43;19.20;53.20
17080;DHT22;8655;57.106;-2.088;2023-05-20T05:41:09;19.20;53.20
17080;DHT22;8655;57.106;-2.088;2023-05-20T05:43:35;19.20;53.20
17080;DHT22;8655;57.106;-2.088;2023-05-20T05:46:00;19.20;53.20
17080;DHT22;8655;57.106;-2.088;2023-05-20T05:48:26;19.20;53.20
17080;DHT22;8655;57.106;-2.088;2023-05-20T05:50:52;19.20;53.20
17080;DHT22;8655;57.106;-2.088;2023-05-20T05:53:18;19.20;53.20
17080;DHT22;8655;57.106;-2.088;2023-05-20T05:55:45;19.20;53.20
17080;DHT22;8655;57.106;-2.088;2023-05-20T05:58:11;19.20;53.20
17080;DHT22;8655;57.106;-2.088;2023-05-20T06:00:37;19.10;53.10
17080;DHT22;8655;57.106;-2.088;2023-05-20T06:03:03;19.10;53.10
17080;DHT22;8655;57.106;-2.088;2023-05-20T06:05:30;19.10;53.10
17080;DHT22;8655;57.106;-2.088;2023-05-20T06:07:55;19.10;53.10
17080;DHT22;8655;57.106;-2.088;2023-05-20T06:10:21;19.10;53.10
17080;DHT22;8655;57.106;-2.088;2023-05-20T06:12:47;19.20;53.20
17080;DHT22;8655;57.106;-2.088;2023-05-20T06:15:13;19.20;53.20
17080;DHT22;8655;57.106;-2.088;2023-05-20T06:17:38;19.10;53.10
17080;DHT22;8655;57.106;-2.088;2023-05-20T06:20:05;19.10;53.10
17080;DHT22;8655;57.106;-2.088;2023-05-20T06:22:30;19.10;53.20
17080;DHT22;8655;57.106;-2.088;2023-05-20T06:24:56;19.10;53.10
17080;DHT22;8655;57.106;-2.088;2023-05-20T06:27:25;19.10;53.10
17080;DHT22;8655;57.106;-2.088;2023-05-20T06:29:52;19.10;53.10
17080;DHT22;8655;57.106;-2.088;2023-05-20T06:32:17;19.10;53.10
17080;DHT22;8655;57.106;-2.088;2023-05-20T06:34:43;19.10;53.20
17080;DHT22;8655;57.106;-2.088;2023-05-20T06:37:09;19.10;53.20
17080;DHT22;8655;57.106;-2.088;2023-05-20T06:39:35;19.10;53.20
17080;DHT22;8655;57.106;-2.088;2023-05-20T06:42:01;19.10;53.20
17080;DHT22;8655;57.106;-2.088;2023-05-20T06:44:27;19.10;53.20
17080;DHT22;8655;57.106;-2.088;2023-05-20T06:46:53;19.10;53.20
17080;DHT22;8655;57.106;-2.088;2023-05-20T06:49:19;19.10;53.20
17080;DHT22;8655;57.106;-2.088;2023-05-20T06:51:45;19.10;53.10
17080;DHT22;8655;57.106;-2.088;2023-05-20T06:54:10;19.10;53.20
17080;DHT22;8655;57.106;-2.088;2023-05-20T06:56:36;19.10;53.20
17080;DHT22;8655;57.106;-2.088;2023-05-20T06:59:02;19.10;53.20
17080;DHT22;8655;57.106;-2.088;2023-05-20T07:01:28;19.10;53.20
17080;DHT22;8655;57.106;-2.088;2023-05-20T07:03:53;19.10;53.20
17080;DHT22;8655;57.106;-2.088;2023-05-20T07:06:19;19.10;53.20
17080;DHT22;8655;57.106;-2.088;2023-05-20T07:08:45;19.10;53.20
17080;DHT22;8655;57.106;-2.088;2023-05-20T07:11:10;19.10;53.20
17080;DHT22;8655;57.106;-2.088;2023-05-20T07:13:36;19.10;53.20
17080;DHT22;8655;57.106;-2.088;2023-05-20T07:16:02;19.10;53.20
17080;DHT22;8655;57.106;-2.088;2023-05-20T07:18:28;19.00;53.10
17080;DHT22;8655;57.106;-2.088;2023-05-20T07:20:54;19.00;53.20
17080;DHT22;8655;57.106;-2.088;2023-05-20T07:23:22;19.00;53.20
17080;DHT22;8655;57.106;-2.088;2023-05-20T07:25:47;19.00;53.20
17080;DHT22;8655;57.106;-2.088;2023-05-20T07:28:15;19.00;53.10
17080;DHT22;8655;57.106;-2.088;2023-05-20T07:30:42;19.00;53.10
17080;DHT22;8655;57.106;-2.088;2023-05-20T07:33:14;19.00;53.20
17080;DHT22;8655;57.106;-2.088;2023-05-20T07:35:41;19.10;53.20
17080;DHT22;8655;57.106;-2.088;2023-05-20T07:38:07;19.00;53.20
17080;DHT22;8655;57.106;-2.088;2023-05-20T07:40:32;19.00;53.20
17080;DHT22;8655;57.106;-2.088;2023-05-20T07:42:58;19.00;53.20
17080;DHT22;8655;57.106;-2.088;2023-05-20T07:45:24;19.10;53.20
17080;DHT22;8655;57.106;-2.088;2023-05-20T07:47:50;19.00;53.20
17080;DHT22;8655;57.106;-2.088;2023-05-20T07:50:15;19.00;53.20
17080;DHT22;8655;57.106;-2.088;2023-05-20T07:52:41;19.00;53.20
17080;DHT22;8655;57.106;-2.088;2023-05-20T07:55:07;19.00;53.20
17080;DHT22;8655;57.106;-2.088;2023-05-20T07:57:32;19.00;53.20
17080;DHT22;8655;57.106;-2.088;2023-05-20T07:59:58;19.00;53.20
17080;DHT22;8655;57.106;-2.088;2023-05-20T08:02:24;19.10;53.30
17080;DHT22;8655;57.106;-2.088;2023-05-20T08:04:50;19.00;53.20
17080;DHT22;8655;57.106;-2.088;2023-05-20T08:07:15;19.00;53.20
17080;DHT22;8655;57.106;-2.088;2023-05-20T08:09:41;19.00;53.20
17080;DHT22;8655;57.106;-2.088;2023-05-20T08:12:07;19.00;53.20
17080;DHT22;8655;57.106;-2.088;2023-05-20T08:14:33;19.00;53.20
17080;DHT22;8655;57.106;-2.088;2023-05-20T08:16:59;19.00;53.20
17080;DHT22;8655;57.106;-2.088;2023-05-20T08:19:24;19.00;53.20
17080;DHT22;8655;57.106;-2.088;2023-05-20T08:21:50;19.00;53.20
17080;DHT22;8655;57.106;-2.088;2023-05-20T08:24:16;19.00;53.20
17080;DHT22;8655;57.106;-2.088;2023-05-20T08:26:42;19.00;53.20
17080;DHT22;8655;57.106;-2.088;2023-05-20T08:29:07;19.00;53.20
17080;DHT22;8655;57.106;-2.088;2023-05-20T08:31:33;19.00;53.20
17080;DHT22;8655;57.106;-2.088;2023-05-20T08:33:59;19.00;53.20
17080;DHT22;8655;57.106;-2.088;2023-05-20T08:36:25;19.00;53.20
17080;DHT22;8655;57.106;-2.088;2023-05-20T08:38:50;19.00;53.20
17080;DHT22;8655;57.106;-2.088;2023-05-20T08:41:16;19.00;53.20
17080;DHT22;8655;57.106;-2.088;2023-05-20T08:43:42;19.00;53.20
17080;DHT22;8655;57.106;-2.088;2023-05-20T08:46:09;19.00;53.20
17080;DHT22;8655;57.106;-2.088;2023-05-20T08:48:36;19.00;53.20
17080;DHT22;8655;57.106;-2.088;2023-05-20T08:51:02;19.00;53.90
17080;DHT22;8655;57.106;-2.088;2023-05-20T08:53:28;19.00;53.30
17080;DHT22;8655;57.106;-2.088;2023-05-20T08:55:55;19.00;53.30
17080;DHT22;8655;57.106;-2.088;2023-05-20T08:58:23;19.00;53.30
17080;DHT22;8655;57.106;-2.088;2023-05-20T09:00:50;19.00;53.30
17080;DHT22;8655;57.106;-2.088;2023-05-20T09:03:17;19.00;53.30
17080;DHT22;8655;57.106;-2.088;2023-05-20T09:05:45;19.00;53.30
17080;DHT22;8655;57.106;-2.088;2023-05-20T09:08:11;19.00;53.30
17080;DHT22;8655;57.106;-2.088;2023-05-20T09:10:38;19.00;53.30
17080;DHT22;8655;57.106;-2.088;2023-05-20T09:13:05;19.00;53.30
17080;DHT22;8655;57.106;-2.088;2023-05-20T09:15:32;19.00;53.30
17080;DHT22;8655;57.106;-2.088;2023-05-20T09:18:02;19.00;53.30
17080;DHT22;8655;57.106;-2.088;2023-05-20T09:20:29;19.00;53.30
17080;DHT22;8655;57.106;-2.088;2023-05-20T09:23:06;19.00;53.30
17080;DHT22;8655;57.106;-2.088;2023-05-20T09:25:33;19.00;53.30
17080;DHT22;8655;57.106;-2.088;2023-05-20T09:27:58;19.00;53.30
17080;DHT22;8655;57.106;-2.088;2023-05-20T09:30:24;19.00;53.30
17080;DHT22;8655;57.106;-2.088;2023-05-20T09:32:58;19.00;53.30
17080;DHT22;8655;57.106;-2.088;2023-05-20T09:35:25;18.90;53.20
17080;DHT22;8655;57.106;-2.088;2023-05-20T09:37:55;18.90;53.20
17080;DHT22;8655;57.106;-2.088;2023-05-20T09:40:27;18.90;53.30
17080;DHT22;8655;57.106;-2.088;2023-05-20T09:42:56;18.90;53.30
17080;DHT22;8655;57.106;-2.088;2023-05-20T09:45:24;18.90;53.30
17080;DHT22;8655;57.106;-2.088;2023-05-20T09:47:51;18.90;53.20
17080;DHT22;8655;57.106;-2.088;2023-05-20T09:50:18;18.90;53.30
17080;DHT22;8655;57.106;-2.088;2023-05-20T09:52:48;19.00;53.40
17080;DHT22;8655;57.106;-2.088;2023-05-20T09:55:18;19.00;53.30
17080;DHT22;8655;57.106;-2.088;2023-05-20T09:57:44;18.90;53.30
17080;DHT22;8655;57.106;-2.088;2023-05-20T10:00:10;18.90;53.30
17080;DHT22;8655;57.106;-2.088;2023-05-20T10:02:51;18.90;53.30
17080;DHT22;8655;57.106;-2.088;2023-05-20T10:16:56;18.90;53.30
17080;DHT22;8655;57.106;-2.088;2023-05-20T10:19:31;18.90;53.30
17080;DHT22;8655;57.106;-2.088;2023-05-20T10:21:59;18.90;53.30
17080;DHT22;8655;57.106;-2.088;2023-05-20T10:24:35;18.90;53.30
17080;DHT22;8655;57.106;-2.088;2023-05-20T10:27:04;18.90;53.30
17080;DHT22;8655;57.106;-2.088;2023-05-20T10:29:50;19.00;53.50
17080;DHT22;8655;57.106;-2.088;2023-05-20T10:32:30;18.90;53.30
17080;DHT22;8655;57.106;-2.088;2023-05-20T10:35:01;18.90;53.30
17080;DHT22;8655;57.106;-2.088;2023-05-20T10:37:39;19.00;53.40
17080;DHT22;8655;57.106;-2.088;2023-05-20T10:40:17;18.90;53.40
17080;DHT22;8655;57.106;-2.088;2023-05-20T10:42:43;18.90;53.30
17080;DHT22;8655;57.106;-2.088;2023-05-20T10:45:09;18.90;53.30
17080;DHT22;8655;57.106;-2.088;2023-05-20T10:47:36;18.90;53.40
17080;DHT22;8655;57.106;-2.088;2023-05-20T10:50:02;18.90;53.40
17080;DHT22;8655;57.106;-2.088;2023-05-20T10:52:35;18.90;53.40
17080;DHT22;8655;57.106;-2.088;2023-05-20T10:55:01;18.90;53.40
17080;DHT22;8655;57.106;-2.088;2023-05-20T10:57:29;18.90;53.40
17080;DHT22;8655;57.106;-2.088;2023-05-20T10:59:56;18.90;53.40
17080;DHT22;8655;57.106;-2.088;2023-05-20T11:02:22;18.90;53.40
17080;DHT22;8655;57.106;-2.088;2023-05-20T11:04:56;18.90;53.40
17080;DHT22;8655;57.106;-2.088;2023-05-20T11:07:29;18.90;53.40
17080;DHT22;8655;57.106;-2.088;2023-05-20T11:09:55;18.90;53.40
17080;DHT22;8655;57.106;-2.088;2023-05-20T11:12:23;18.90;53.40
17080;DHT22;8655;57.106;-2.088;2023-05-20T11:14:49;18.90;53.40
17080;DHT22;8655;57.106;-2.088;2023-05-20T11:17:15;18.90;53.40
17080;DHT22;8655;57.106;-2.088;2023-05-20T11:19:41;18.90;53.40
17080;DHT22;8655;57.106;-2.088;2023-05-20T11:22:07;18.90;53.40
17080;DHT22;8655;57.106;-2.088;2023-05-20T11:24:33;18.90;53.40
17080;DHT22;8655;57.106;-2.088;2023-05-20T11:27:00;18.90;53.60
17080;DHT22;8655;57.106;-2.088;2023-05-20T11:29:26;18.90;53.40
17080;DHT22;8655;57.106;-2.088;2023-05-20T11:31:53;18.90;53.40
17080;DHT22;8655;57.106;-2.088;2023-05-20T11:34:23;19.00;53.50
17080;DHT22;8655;57.106;-2.088;2023-05-20T11:36:58;18.90;53.40
17080;DHT22;8655;57.106;-2.088;2023-05-20T11:39:24;19.00;53.50
17080;DHT22;8655;57.106;-2.088;2023-05-20T11:41:52;19.00;53.50
17080;DHT22;8655;57.106;-2.088;2023-05-20T11:44:19;19.00;53.50
17080;DHT22;8655;57.106;-2.088;2023-05-20T11:46:46;18.90;53.50
17080;DHT22;8655;57.106;-2.088;2023-05-20T11:49:12;18.90;53.50
17080;DHT22;8655;57.106;-2.088;2023-05-20T11:51:38;18.90;53.50
17080;DHT22;8655;57.106;-2.088;2023-05-20T11:54:05;19.00;53.60
17080;DHT22;8655;57.106;-2.088;2023-05-20T11:56:36;19.00;53.60
17080;DHT22;8655;57.106;-2.088;2023-05-20T11:59:07;19.00;53.60
17080;DHT22;8655;57.106;-2.088;2023-05-20T12:01:35;19.00;53.60
17080;DHT22;8655;57.106;-2.088;2023-05-20T12:04:06;19.00;53.60
17080;DHT22;8655;57.106;-2.088;2023-05-20T12:06:32;19.00;53.60
17080;DHT22;8655;57.106;-2.088;2023-05-20T12:09:02;19.00;53.60
17080;DHT22;8655;57.106;-2.088;2023-05-20T12:11:38;19.00;53.60
17080;DHT22;8655;57.106;-2.088;2023-05-20T12:14:08;19.00;53.60
17080;DHT22;8655;57.106;-2.088;2023-05-20T12:16:35;19.00;53.60
17080;DHT22;8655;57.106;-2.088;2023-05-20T12:19:01;19.00;53.60
17080;DHT22;8655;57.106;-2.088;2023-05-20T12:21:30;19.00;53.60
17080;DHT22;8655;57.106;-2.088;2023-05-20T12:23:57;19.00;53.60
17080;DHT22;8655;57.106;-2.088;2023-05-20T12:26:27;19.00;53.60
17080;DHT22;8655;57.106;-2.088;2023-05-20T12:28:53;19.00;53.70
17080;DHT22;8655;57.106;-2.088;2023-05-20T12:31:19;19.00;53.60
17080;DHT22;8655;57.106;-2.088;2023-05-20T12:33:45;19.00;53.70
17080;DHT22;8655;57.106;-2.088;2023-05-20T12:36:12;19.00;53.70
17080;DHT22;8655;57.106;-2.088;2023-05-20T12:38:37;19.00;53.60
17080;DHT22;8655;57.106;-2.088;2023-05-20T12:41:03;19.00;53.70
17080;DHT22;8655;57.106;-2.088;2023-05-20T12:43:29;19.00;53.60
17080;DHT22;8655;57.106;-2.088;2023-05-20T12:45:54;19.00;53.70
17080;DHT22;8655;57.106;-2.088;2023-05-20T12:48:20;19.00;53.70
17080;DHT22;8655;57.106;-2.088;2023-05-20T12:50:46;19.00;53.70
17080;DHT22;8655;57.106;-2.088;2023-05-20T12:53:12;19.00;53.70
17080;DHT22;8655;57.106;-2.088;2023-05-20T12:55:37;19.00;53.70
17080;DHT22;8655;57.106;-2.088;2023-05-20T12:58:03;19.00;53.70
17080;DHT22;8655;57.106;-2.088;2023-05-20T13:00:29;19.00;53.70
17080;DHT22;8655;57.106;-2.088;2023-05-20T13:02:55;19.00;53.70
17080;DHT22;8655;57.106;-2.088;2023-05-20T13:05:21;19.00;53.70
17080;DHT22;8655;57.106;-2.088;2023-05-20T13:07:47;19.00;53.70
17080;DHT22;8655;57.106;-2.088;2023-05-20T13:10:13;19.00;53.70
17080;DHT22;8655;57.106;-2.088;2023-05-20T13:12:39;19.00;53.70
17080;DHT22;8655;57.106;-2.088;2023-05-20T13:15:10;19.00;53.80
17080;DHT22;8655;57.106;-2.088;2023-05-20T13:17:37;19.00;53.70
17080;DHT22;8655;57.106;-2.088;2023-05-20T13:20:03;19.00;53.70
17080;DHT22;8655;57.106;-2.088;2023-05-20T13:22:28;19.00;53.70
17080;DHT22;8655;57.106;-2.088;2023-05-20T13:24:54;19.00;53.70
17080;DHT22;8655;57.106;-2.088;2023-05-20T13:27:20;19.00;53.80
17080;DHT22;8655;57.106;-2.088;2023-05-20T13:29:45;19.00;53.80
17080;DHT22;8655;57.106;-2.088;2023-05-20T13:32:11;19.00;53.80
17080;DHT22;8655;57.106;-2.088;2023-05-20T13:34:37;19.00;53.80
17080;DHT22;8655;57.106;-2.088;2023-05-20T13:37:03;19.00;53.80
17080;DHT22;8655;57.106;-2.088;2023-05-20T13:39:29;19.00;53.80
17080;DHT22;8655;57.106;-2.088;2023-05-20T13:41:55;19.00;53.80
17080;DHT22;8655;57.106;-2.088;2023-05-20T13:44:21;19.00;53.80
17080;DHT22;8655;57.106;-2.088;2023-05-20T13:46:46;19.00;53.80
17080;DHT22;8655;57.106;-2.088;2023-05-20T13:49:12;19.00;53.80
17080;DHT22;8655;57.106;-2.088;2023-05-20T13:51:38;19.00;53.80
17080;DHT22;8655;57.106;-2.088;2023-05-20T13:54:03;19.00;53.80
17080;DHT22;8655;57.106;-2.088;2023-05-20T13:56:30;19.00;53.80
17080;DHT22;8655;57.106;-2.088;2023-05-20T13:58:56;19.00;53.80
17080;DHT22;8655;57.106;-2.088;2023-05-20T14:01:22;19.00;53.80
17080;DHT22;8655;57.106;-2.088;2023-05-20T14:03:47;19.00;53.80
17080;DHT22;8655;57.106;-2.088;2023-05-20T14:06:13;19.00;53.80
17080;DHT22;8655;57.106;-2.088;2023-05-20T14:08:43;19.00;53.80
17080;DHT22;8655;57.106;-2.088;2023-05-20T14:11:09;19.00;53.80
17080;DHT22;8655;57.106;-2.088;2023-05-20T14:13:35;19.00;53.80
17080;DHT22;8655;57.106;-2.088;2023-05-20T14:16:00;19.00;53.80
17080;DHT22;8655;57.106;-2.088;2023-05-20T14:18:26;19.00;53.80
17080;DHT22;8655;57.106;-2.088;2023-05-20T14:20:52;19.00;53.80
17080;DHT22;8655;57.106;-2.088;2023-05-20T14:23:17;19.00;53.80
17080;DHT22;8655;57.106;-2.088;2023-05-20T14:25:43;19.00;53.80
17080;DHT22;8655;57.106;-2.088;2023-05-20T14:28:08;19.00;53.80
17080;DHT22;8655;57.106;-2.088;2023-05-20T14:30:36;19.00;53.80
17080;DHT22;8655;57.106;-2.088;2023-05-20T14:33:02;19.00;53.90
17080;DHT22;8655;57.106;-2.088;2023-05-20T14:35:27;19.00;53.80
17080;DHT22;8655;57.106;-2.088;2023-05-20T14:37:53;19.00;53.80
17080;DHT22;8655;57.106;-2.088;2023-05-20T14:40:19;19.00;53.90
17080;DHT22;8655;57.106;-2.088;2023-05-20T14:42:45;19.00;53.90
17080;DHT22;8655;57.106;-2.088;2023-05-20T14:45:10;19.00;53.80
17080;DHT22;8655;57.106;-2.088;2023-05-20T14:47:36;19.00;53.80
17080;DHT22;8655;57.106;-2.088;2023-05-20T14:50:05;19.00;53.80
17080;DHT22;8655;57.106;-2.088;2023-05-20T14:52:31;19.00;53.90
17080;DHT22;8655;57.106;-2.088;2023-05-20T14:54:56;19.00;53.90
17080;DHT22;8655;57.106;-2.088;2023-05-20T14:57:22;19.00;53.90
17080;DHT22;8655;57.106;-2.088;2023-05-20T14:59:48;19.00;53.90
17080;DHT22;8655;57.106;-2.088;2023-05-20T15:02:17;19.00;53.90
17080;DHT22;8655;57.106;-2.088;2023-05-20T15:04:44;19.00;53.90
17080;DHT22;8655;57.106;-2.088;2023-05-20T15:07:15;19.00;53.90
17080;DHT22;8655;57.106;-2.088;2023-05-20T15:09:41;19.10;54.00
17080;DHT22;8655;57.106;-2.088;2023-05-20T15:12:09;19.00;53.90
17080;DHT22;8655;57.106;-2.088;2023-05-20T15:14:35;19.00;53.90
17080;DHT22;8655;57.106;-2.088;2023-05-20T15:17:01;19.00;53.90
17080;DHT22;8655;57.106;-2.088;2023-05-20T15:19:27;19.00;53.90
17080;DHT22;8655;57.106;-2.088;2023-05-20T15:21:52;19.00;53.90
17080;DHT22;8655;57.106;-2.088;2023-05-20T15:24:19;19.00;53.90
17080;DHT22;8655;57.106;-2.088;2023-05-20T15:26:45;19.00;53.90
17080;DHT22;8655;57.106;-2.088;2023-05-20T15:29:11;19.00;53.90
17080;DHT22;8655;57.106;-2.088;2023-05-20T15:31:36;19.00;54.50
17080;DHT22;8655;57.106;-2.088;2023-05-20T15:34:02;19.00;53.90
17080;DHT22;8655;57.106;-2.088;2023-05-20T15:36:28;19.00;53.90
17080;DHT22;8655;57.106;-2.088;2023-05-20T15:38:55;19.00;53.90
17080;DHT22;8655;57.106;-2.088;2023-05-20T15:41:21;19.00;53.90